首页
METAR-TAF:

METAR-TAF

机场 :

巴尼亚卢卡, 波斯尼亚和黑塞哥维那

纬度: 44-47N, 经度: 017-13E, 海拔: 156米

当前天气观测

该预报发布于22分钟前的10:30 UTC
风速4节,风向北转西北
温度 26°C
湿度 37%
气压 1014 hPa
能见度10公里或以上
少量云层高于4000英尺

METAR: LQBK 151030Z 34004KT 9999 FEW040 26/10 Q1014 NOSIG

时间: 12:52 (10:52 UTC)

预报

该预报发布于5小时和52分钟前的05:00 UTC
预报有效从15日的 06点(UTC)到 16日的 06点(UTC)
风速2节,风向多变
能见度10公里或以上
散云层高于4000英尺
几率 30% :
短暂存在
从 15日的 18点(UTC)到 15日的 21点(UTC)
少量云层高于3000英尺, 塔状积云.
散云层高于3500英尺
阵雨

TAF: LQBK 150500Z 1506/1606 VRB02KT 9999 SCT040 TX26/1514Z TN12/1603Z PROB30 TEMPO 1518/1521 SHRA FEW030TCU SCT035

超过4000个机场的气象观测和天气预报(METAR&TAF报告)。

可查询的气象台以黄色和红色小点在地图上表示。

将鼠标移到小点上方,可查看气象台名称。

然后点击查看天气观测和预报。

如需切换地图:点击带黑十字的绿色按钮放大地图;点击带横线的绿色按钮缩小地图;或者点击绿色箭头查看邻近地区的地图。


METAR-TAF: